createdAt,value
2018-04-13T00:00:28.250Z,27.40
2018-04-13T00:03:01.539Z,33.10
2018-04-13T00:05:30.156Z,33.63
2018-04-13T00:08:03.301Z,27.37
2018-04-13T00:10:32.296Z,26.77
2018-04-13T00:13:05.603Z,24.13
2018-04-13T00:15:34.602Z,28.33
2018-04-13T00:18:08.207Z,25.10
2018-04-13T00:20:38.643Z,23.83
2018-04-13T00:23:11.616Z,24.90
2018-04-13T00:25:40.197Z,26.53
2018-04-13T00:28:12.968Z,26.47
2018-04-13T00:30:42.300Z,26.67
2018-04-13T00:33:15.211Z,23.93
2018-04-13T00:35:45.664Z,23.53
2018-04-13T00:38:18.629Z,23.40
2018-04-13T00:40:47.979Z,25.57
2018-04-13T00:43:21.534Z,27.23
2018-04-13T00:45:50.215Z,25.03
2018-04-13T00:48:23.451Z,24.70
2018-04-13T00:50:52.847Z,39.23
2018-04-13T00:53:30.339Z,24.67
2018-04-13T00:56:00.204Z,25.23
2018-04-13T00:58:29.848Z,33.07
2018-04-13T01:00:58.626Z,29.03
2018-04-13T01:03:29.539Z,30.23
2018-04-13T01:05:59.600Z,27.10
2018-04-13T01:08:40.828Z,21.87
2018-04-13T01:11:09.773Z,19.37
2018-04-13T01:13:39.132Z,26.23
2018-04-13T01:16:08.582Z,22.23
2018-04-13T01:18:38.202Z,29.07
2018-04-13T01:21:07.297Z,23.70
2018-04-13T01:23:38.321Z,24.47
2018-04-13T01:26:07.946Z,26.27
2018-04-13T01:28:41.136Z,25.23
2018-04-13T01:31:09.723Z,27.43
2018-04-13T01:33:42.999Z,19.37
2018-04-13T01:36:12.371Z,26.83
2018-04-13T01:38:45.163Z,27.07
2018-04-13T01:41:14.333Z,26.30
2018-04-13T01:43:47.644Z,19.57
2018-04-13T01:46:17.367Z,19.93
2018-04-13T01:48:49.712Z,29.53
2018-04-13T01:51:19.318Z,32.33
2018-04-13T01:54:01.262Z,24.50
2018-04-13T01:56:29.856Z,19.80
2018-04-13T01:58:59.110Z,19.27
2018-04-13T02:01:27.700Z,20.53
2018-04-13T02:04:00.283Z,17.37
2018-04-13T02:06:29.267Z,24.50
2018-04-13T02:09:10.533Z,21.67
2018-04-13T02:11:39.540Z,20.40
2018-04-13T02:14:08.140Z,18.60
2018-04-13T02:16:37.049Z,20.10
2018-04-13T02:19:05.912Z,28.07
2018-04-13T02:21:34.374Z,20.03
2018-04-13T02:24:11.492Z,19.60
2018-04-13T02:26:40.640Z,19.13
2018-04-13T02:29:12.624Z,18.53
2018-04-13T02:31:42.238Z,17.80
2018-04-13T02:34:13.680Z,18.33
2018-04-13T02:36:42.111Z,20.10
2018-04-13T02:39:16.290Z,22.93
2018-04-13T02:41:45.048Z,19.80
2018-04-13T02:44:18.520Z,19.10
2018-04-13T02:46:47.434Z,17.20
2018-04-13T02:49:21.413Z,18.17
2018-04-13T02:51:49.921Z,17.63
2018-04-13T02:54:23.737Z,17.90
2018-04-13T02:56:52.543Z,20.27
2018-04-13T02:59:25.267Z,19.97
2018-04-13T03:01:53.736Z,19.70
2018-04-13T03:04:26.891Z,16.70
2018-04-13T03:06:55.360Z,18.47
2018-04-13T03:09:29.554Z,18.63
2018-04-13T03:11:58.815Z,16.60
2018-04-13T03:14:39.719Z,15.63
2018-04-13T03:17:09.667Z,16.83
2018-04-13T03:19:38.123Z,17.23
2018-04-13T03:22:07.741Z,16.60
2018-04-13T03:24:37.619Z,17.27
2018-04-13T03:27:07.151Z,15.97
2018-04-13T03:29:40.099Z,15.57
2018-04-13T03:32:08.844Z,15.00
2018-04-13T03:34:41.947Z,15.07
2018-04-13T03:37:10.422Z,13.97
2018-04-13T03:39:43.705Z,12.97
2018-04-13T03:42:12.236Z,12.90
2018-04-13T03:44:44.991Z,12.50
2018-04-13T03:47:14.573Z,12.33
2018-04-13T03:49:47.888Z,12.17
2018-04-13T03:52:16.371Z,13.40
2018-04-13T03:54:51.460Z,11.50
2018-04-13T03:57:21.076Z,17.40
2018-04-13T03:59:53.748Z,16.03
2018-04-13T04:02:22.642Z,12.37
2018-04-13T04:04:56.060Z,12.63
2018-04-13T04:07:24.803Z,12.60
2018-04-13T04:10:06.483Z,12.00
2018-04-13T04:12:35.875Z,12.00
2018-04-13T04:15:04.439Z,12.10
2018-04-13T04:17:32.923Z,12.03
2018-04-13T04:21:18.877Z,12.03
2018-04-13T04:28:39.160Z,12.63
2018-04-13T04:31:20.081Z,10.67
2018-04-13T04:33:49.205Z,12.07
2018-04-13T04:36:18.457Z,12.70
2018-04-13T04:38:47.680Z,11.50
2018-04-13T04:41:17.674Z,11.10
2018-04-13T04:43:47.270Z,11.30
2018-04-13T04:46:18.768Z,12.90
2018-04-13T04:48:48.523Z,12.03
2018-04-13T04:51:21.448Z,11.00
2018-04-13T04:53:50.720Z,11.00
2018-04-13T04:56:21.969Z,10.90
2018-04-13T04:58:51.451Z,10.93
2018-04-13T05:01:32.861Z,10.90
2018-04-13T05:04:02.517Z,10.50
2018-04-13T05:06:32.524Z,9.97
2018-04-13T05:09:01.629Z,8.80
2018-04-13T05:11:30.139Z,9.60
2018-04-13T05:13:59.747Z,8.70
2018-04-13T05:16:30.506Z,10.07
2018-04-13T05:19:00.054Z,8.13
2018-04-13T05:21:33.005Z,8.47
2018-04-13T05:24:02.523Z,8.93
2018-04-13T05:26:43.873Z,8.33
2018-04-13T05:29:13.412Z,9.67
2018-04-13T05:31:42.924Z,7.37
2018-04-13T05:34:12.432Z,7.43
2018-04-13T05:36:42.253Z,7.37
2018-04-13T05:39:11.788Z,8.17
2018-04-13T05:41:42.036Z,9.23
2018-04-13T05:44:11.548Z,10.13
2018-04-13T05:46:44.688Z,9.33
2018-04-13T05:49:13.167Z,9.27
2018-04-13T05:51:47.033Z,9.23
2018-04-13T05:54:16.269Z,8.23
2018-04-13T05:56:49.223Z,7.33
2018-04-13T05:59:19.535Z,8.43
2018-04-13T06:01:52.367Z,8.13
2018-04-13T06:04:20.849Z,7.90
2018-04-13T06:06:54.263Z,7.30
2018-04-13T06:09:22.987Z,7.70
2018-04-13T06:11:56.544Z,7.13
2018-04-13T06:14:25.026Z,6.63
2018-04-13T06:16:58.872Z,7.77
2018-04-13T06:19:27.743Z,7.43
2018-04-13T06:22:00.911Z,7.73
2018-04-13T06:24:29.435Z,7.30
2018-04-13T06:27:02.762Z,8.00
2018-04-13T06:29:33.024Z,8.00
2018-04-13T06:32:08.444Z,8.10
2018-04-13T06:34:38.107Z,7.60
2018-04-13T06:37:11.202Z,8.07
2018-04-13T06:39:40.060Z,8.30
2018-04-13T06:42:13.582Z,8.60
2018-04-13T06:44:43.275Z,8.33
2018-04-13T06:47:16.916Z,8.60
2018-04-13T06:49:46.469Z,9.60
2018-04-13T06:52:18.667Z,10.30
2018-04-13T06:54:47.571Z,10.50
2018-04-13T06:57:20.245Z,9.37
2018-04-13T06:59:48.805Z,9.00
2018-04-13T07:02:30.832Z,8.97
2018-04-13T07:04:59.545Z,7.97
2018-04-13T07:07:28.407Z,6.93
2018-04-13T07:09:57.889Z,7.40
2018-04-13T07:12:28.211Z,8.60
2018-04-13T07:14:57.907Z,10.47
2018-04-13T07:17:29.728Z,10.93
2018-04-13T07:19:58.487Z,9.10
2018-04-13T07:22:30.991Z,9.73
2018-04-13T07:24:59.496Z,9.87
2018-04-13T07:27:40.982Z,9.17
2018-04-13T07:30:09.453Z,8.40
2018-04-13T07:32:38.221Z,7.67
2018-04-13T07:35:06.705Z,7.50
2018-04-13T07:37:38.236Z,8.20
2018-04-13T07:40:08.061Z,7.77
2018-04-13T07:42:39.965Z,6.57
2018-04-13T07:45:09.304Z,5.50
2018-04-13T07:47:51.019Z,4.50
2018-04-13T07:50:20.048Z,5.73
2018-04-13T07:52:48.515Z,4.47
2018-04-13T07:55:17.848Z,4.60
2018-04-13T07:57:47.845Z,4.30
2018-04-13T08:00:18.347Z,4.87
2018-04-13T08:02:49.536Z,5.50
2018-04-13T08:05:18.427Z,3.97
2018-04-13T08:07:51.927Z,3.20
2018-04-13T08:10:21.167Z,2.80
2018-04-13T08:12:54.483Z,2.53
2018-04-13T08:15:23.008Z,2.60
2018-04-13T08:17:56.080Z,2.43
2018-04-13T08:20:24.579Z,3.03
2018-04-13T08:22:58.154Z,2.33
2018-04-13T08:25:26.699Z,2.60
2018-04-13T08:28:01.673Z,2.70
2018-04-13T08:30:30.187Z,3.67
2018-04-13T08:43:38.292Z,3.87
2018-04-13T08:46:21.822Z,3.93
2018-04-13T08:48:50.817Z,4.37
2018-04-13T08:51:20.397Z,3.60
2018-04-13T08:53:49.653Z,3.60
2018-04-13T08:56:19.234Z,3.30
2018-04-13T08:58:48.744Z,3.17
2018-04-13T09:01:21.724Z,3.67
2018-04-13T09:03:50.512Z,3.30
2018-04-13T09:06:21.676Z,3.70
2018-04-13T09:08:50.105Z,3.67
2018-04-13T09:11:23.019Z,3.67
2018-04-13T09:13:51.520Z,3.90
2018-04-13T09:16:24.801Z,3.83
2018-04-13T09:18:53.673Z,3.57
2018-04-13T09:21:35.916Z,3.67
2018-04-13T09:24:04.682Z,3.33
2018-04-13T09:26:33.579Z,3.60
2018-04-13T09:29:02.820Z,4.00
2018-04-13T09:31:32.758Z,4.17
2018-04-13T09:34:01.224Z,3.77
2018-04-13T09:36:35.512Z,3.40
2018-04-13T09:39:04.503Z,3.13
2018-04-13T09:41:37.228Z,3.80
2018-04-13T09:44:06.717Z,3.37
2018-04-13T09:46:39.867Z,2.90
2018-04-13T09:49:08.840Z,2.47
2018-04-13T09:51:50.515Z,2.90
2018-04-13T09:54:20.450Z,2.70
2018-04-13T09:56:48.903Z,2.10
2018-04-13T09:59:18.597Z,2.50
2018-04-13T10:01:49.063Z,2.10
2018-04-13T10:04:18.943Z,2.17
2018-04-13T10:06:51.221Z,2.10
2018-04-13T10:09:20.348Z,3.07
2018-04-13T10:11:52.670Z,2.60
2018-04-13T10:14:21.135Z,2.20
2018-04-13T10:16:57.179Z,2.17
2018-04-13T10:19:26.795Z,2.73
2018-04-13T10:21:57.520Z,2.37
2018-04-13T10:24:26.740Z,3.73
2018-04-13T10:27:08.635Z,1.83
2018-04-13T10:29:38.878Z,1.53
2018-04-13T10:32:07.749Z,1.47
2018-04-13T10:34:37.251Z,1.80
2018-04-13T10:37:07.042Z,1.43
2018-04-13T10:39:36.307Z,1.40
2018-04-13T10:42:17.320Z,1.40
2018-04-13T10:44:47.071Z,1.40
2018-04-13T10:47:15.567Z,1.87
2018-04-13T10:49:44.266Z,1.53
2018-04-13T10:52:13.829Z,1.93
2018-04-13T10:54:43.640Z,1.73
2018-04-13T10:57:16.907Z,1.67
2018-04-13T10:59:46.682Z,2.00
2018-04-13T11:02:18.532Z,1.77
2018-04-13T11:04:48.029Z,1.80
2018-04-13T11:07:20.625Z,1.63
2018-04-13T11:09:49.088Z,1.63
2018-04-13T11:12:22.405Z,2.20
2018-04-13T11:14:52.164Z,1.97
2018-04-13T11:17:23.890Z,2.00
2018-04-13T11:19:53.503Z,2.33
2018-04-13T11:22:27.376Z,2.00
2018-04-13T11:24:55.908Z,2.83
2018-04-13T11:27:29.577Z,2.00
2018-04-13T11:29:58.585Z,2.20
2018-04-13T11:32:31.700Z,2.33
2018-04-13T11:35:00.945Z,2.40
2018-04-13T11:37:34.202Z,2.90
2018-04-13T11:40:03.105Z,3.03
2018-04-13T11:42:44.091Z,3.10
2018-04-13T11:45:12.987Z,3.03
2018-04-13T11:47:41.579Z,2.90
2018-04-13T11:50:10.145Z,3.10
2018-04-13T11:52:41.212Z,3.30
2018-04-13T11:55:09.823Z,3.13
2018-04-13T11:57:43.229Z,3.80
2018-04-13T12:00:13.195Z,3.53
2018-04-13T12:02:46.331Z,3.57
2018-04-13T12:05:17.315Z,3.53
2018-04-13T12:07:49.425Z,3.57
2018-04-13T12:10:17.972Z,3.80
2018-04-13T12:12:59.316Z,3.73
2018-04-13T12:15:28.176Z,3.83
2018-04-13T12:17:58.436Z,3.83
2018-04-13T12:20:28.061Z,3.70
2018-04-13T12:22:56.563Z,3.57
2018-04-13T12:25:25.480Z,4.60
2018-04-13T12:27:58.401Z,3.40
2018-04-13T12:30:26.974Z,4.37
2018-04-13T12:32:59.659Z,4.40
2018-04-13T12:35:28.886Z,3.73
2018-04-13T12:38:02.718Z,4.10
2018-04-13T12:40:33.154Z,3.83
2018-04-13T12:43:06.432Z,3.63
2018-04-13T12:45:38.152Z,3.80
2018-04-13T12:48:10.055Z,4.40
2018-04-13T12:50:38.512Z,3.47
2018-04-13T12:53:11.563Z,3.87
2018-04-13T12:55:41.839Z,3.47
2018-04-13T12:58:23.569Z,3.13
2018-04-13T13:00:53.472Z,3.00
2018-04-13T13:03:23.095Z,3.00
2018-04-13T13:05:51.971Z,2.60
2018-04-13T13:08:21.516Z,2.90
2018-04-13T13:10:50.009Z,3.23
2018-04-13T13:13:20.313Z,3.10
2018-04-13T13:15:50.224Z,2.97
2018-04-13T13:18:23.188Z,3.93
2018-04-13T13:20:53.231Z,3.77
2018-04-13T13:23:26.285Z,4.00
2018-04-13T13:25:55.631Z,3.57
2018-04-13T13:28:26.882Z,3.60
2018-04-13T13:30:56.543Z,3.77
2018-04-13T13:33:28.950Z,4.23
2018-04-13T13:35:58.463Z,4.43
2018-04-13T13:38:39.508Z,3.90
2018-04-13T13:41:09.873Z,4.03
2018-04-13T13:43:38.388Z,5.00
2018-04-13T13:46:07.876Z,4.73
2018-04-13T13:48:36.650Z,4.60
2018-04-13T13:51:05.155Z,4.37
2018-04-13T13:53:38.000Z,5.10
2018-04-13T13:56:08.255Z,4.30
2018-04-13T13:58:41.394Z,4.50
2018-04-13T14:01:11.024Z,4.00
2018-04-13T14:03:42.892Z,4.90
2018-04-13T14:06:11.428Z,4.80
2018-04-13T14:08:44.104Z,4.23
2018-04-13T14:11:14.352Z,4.13
2018-04-13T14:13:56.308Z,4.10
2018-04-13T14:16:25.223Z,4.70
2018-04-13T14:18:54.088Z,5.03
2018-04-13T14:21:24.099Z,5.10
2018-04-13T14:23:53.395Z,4.93
2018-04-13T14:26:22.908Z,4.80
2018-04-13T14:28:55.324Z,4.43
2018-04-13T14:31:23.852Z,4.53
2018-04-13T14:33:57.944Z,4.60
2018-04-13T14:36:26.741Z,4.93
2018-04-13T14:39:00.627Z,4.77
2018-04-13T14:41:29.099Z,4.80
2018-04-13T14:44:11.235Z,4.50
2018-04-13T14:46:39.724Z,4.50
2018-04-13T14:49:08.484Z,5.10
2018-04-13T14:51:38.087Z,4.37
2018-04-13T14:54:07.637Z,4.33
2018-04-13T14:56:37.135Z,4.90
2018-04-13T14:59:13.528Z,5.10
2018-04-13T15:01:43.179Z,5.00
2018-04-13T15:04:15.132Z,5.67
2018-04-13T15:06:45.208Z,4.70
2018-04-13T15:09:15.963Z,5.03
2018-04-13T15:11:44.506Z,4.87
2018-04-13T15:14:26.124Z,4.60
2018-04-13T15:16:55.377Z,4.47
2018-04-13T15:19:25.111Z,5.23
2018-04-13T15:21:54.331Z,4.60
2018-04-13T15:24:23.220Z,5.00
2018-04-13T15:26:53.652Z,4.80
2018-04-13T15:29:23.967Z,4.47
2018-04-13T15:31:53.221Z,5.17
2018-04-13T15:34:26.287Z,4.83
2018-04-13T15:36:54.827Z,4.30
2018-04-13T15:39:28.582Z,4.93
2018-04-13T15:41:58.347Z,5.07
2018-04-13T15:44:30.975Z,4.70
2018-04-13T15:46:59.447Z,4.70
2018-04-13T15:49:33.347Z,4.43
2018-04-13T15:52:03.351Z,4.63
2018-04-13T15:54:34.941Z,4.93
2018-04-13T15:57:05.334Z,4.40
2018-04-13T15:59:36.936Z,5.13
2018-04-13T16:02:06.419Z,5.03
2018-04-13T16:04:39.724Z,4.73
2018-04-13T16:07:08.217Z,5.07
2018-04-13T16:09:50.738Z,5.40
2018-04-13T16:12:20.064Z,4.73
2018-04-13T16:14:50.172Z,6.10
2018-04-13T16:17:19.835Z,6.60
2018-04-13T16:19:48.947Z,7.80
2018-04-13T16:22:18.560Z,7.70
2018-04-13T16:24:50.646Z,8.10
2018-04-13T16:27:20.291Z,8.50
2018-04-13T16:29:51.609Z,9.60
2018-04-13T16:32:20.915Z,8.70
2018-04-13T16:34:55.368Z,8.80
2018-04-13T16:37:23.907Z,9.40
2018-04-13T16:39:56.923Z,9.63
2018-04-13T16:42:26.048Z,9.30
2018-04-13T16:44:59.124Z,10.40
2018-04-13T16:47:28.379Z,9.73
2018-04-13T16:50:01.736Z,9.73
2018-04-13T16:52:30.226Z,9.80
2018-04-13T16:55:05.024Z,9.40
2018-04-13T16:57:34.604Z,10.10
2018-04-13T17:00:07.370Z,9.90
2018-04-13T17:02:36.612Z,9.13
2018-04-13T17:05:17.987Z,9.83
2018-04-13T17:07:47.035Z,8.97
2018-04-13T17:10:16.581Z,9.20
2018-04-13T17:12:45.436Z,8.90
2018-04-13T17:15:15.110Z,9.03
2018-04-13T17:17:44.671Z,10.00
2018-04-13T17:20:18.049Z,9.93
2018-04-13T17:22:47.243Z,9.23
2018-04-13T17:25:29.320Z,8.80
2018-04-13T17:27:58.457Z,10.00
2018-04-13T17:30:26.924Z,10.53
2018-04-13T17:32:56.232Z,10.23
2018-04-13T17:35:25.331Z,9.90
2018-04-13T17:37:54.927Z,9.67
2018-04-13T17:40:28.400Z,9.87
2018-04-13T17:42:57.180Z,10.57
2018-04-13T17:45:29.685Z,10.10
2018-04-13T17:47:58.968Z,10.70
2018-04-13T17:50:32.180Z,10.90
2018-04-13T17:53:01.742Z,10.57
2018-04-13T17:55:34.443Z,12.47
2018-04-13T17:58:03.300Z,14.07
2018-04-13T18:00:36.146Z,15.20
2018-04-13T18:03:04.602Z,19.37
2018-04-13T18:05:37.715Z,17.67
2018-04-13T18:08:06.625Z,15.60
2018-04-13T18:10:39.335Z,13.03
2018-04-13T18:13:08.472Z,17.70
2018-04-13T18:15:42.810Z,15.20
2018-04-13T18:18:12.611Z,13.47
2018-04-13T18:20:46.913Z,12.13
2018-04-13T18:23:16.617Z,12.90
2018-04-13T18:25:48.125Z,12.80
2018-04-13T18:28:17.626Z,12.63
2018-04-13T18:30:50.877Z,12.87
2018-04-13T18:33:20.412Z,12.50
2018-04-13T18:36:02.064Z,14.03
2018-04-13T18:38:31.724Z,15.87
2018-04-13T18:41:01.036Z,15.13
2018-04-13T18:43:29.905Z,13.03
2018-04-13T18:45:58.751Z,12.87
2018-04-13T18:48:28.259Z,13.23
2018-04-13T18:51:01.024Z,13.50
2018-04-13T18:53:31.013Z,14.57
2018-04-13T18:56:04.125Z,13.77
2018-04-13T18:58:33.273Z,14.63
2018-04-13T19:01:06.796Z,14.03
2018-04-13T19:03:36.505Z,14.33
2018-04-13T19:06:18.652Z,14.70
2018-04-13T19:08:48.439Z,14.20
2018-04-13T19:11:16.888Z,14.93
2018-04-13T19:13:45.763Z,16.63
2018-04-13T19:16:15.010Z,15.63
2018-04-13T19:18:43.499Z,16.20
2018-04-13T19:21:24.451Z,16.33
2018-04-13T19:23:53.334Z,16.03
2018-04-13T19:26:23.581Z,16.57
2018-04-13T19:28:53.179Z,17.93
2018-04-13T19:31:23.168Z,16.27
2018-04-13T19:33:51.950Z,18.20
2018-04-13T19:36:23.681Z,17.67
2018-04-13T19:38:53.291Z,16.67
2018-04-13T19:41:24.478Z,15.93
2018-04-13T19:43:53.395Z,15.87
2018-04-13T19:46:26.959Z,15.53
2018-04-13T19:48:55.704Z,15.80
2018-04-13T19:51:28.554Z,14.97
2018-04-13T19:53:57.035Z,14.43
2018-04-13T19:56:30.575Z,15.30
2018-04-13T19:59:00.561Z,14.70
2018-04-13T20:01:42.115Z,15.37
2018-04-13T20:04:10.895Z,15.00
2018-04-13T20:06:40.595Z,15.37
2018-04-13T20:09:09.128Z,15.70
2018-04-13T20:11:38.609Z,16.57
2018-04-13T20:14:07.115Z,15.17
2018-04-13T20:16:48.478Z,17.33
2018-04-13T20:19:18.800Z,15.80
2018-04-13T20:21:48.872Z,16.07
2018-04-13T20:24:18.530Z,16.60
2018-04-13T20:26:48.314Z,16.73
2018-04-13T20:29:16.847Z,17.43
2018-04-13T20:31:48.120Z,17.00
2018-04-13T20:34:17.919Z,16.67
2018-04-13T20:36:50.764Z,16.87
2018-04-13T20:39:19.258Z,18.17
2018-04-13T20:41:52.256Z,17.47
2018-04-13T20:44:20.725Z,18.07
2018-04-13T20:46:54.187Z,17.87
2018-04-13T20:49:23.721Z,17.73
2018-04-13T20:52:06.303Z,19.47
2018-04-13T20:54:35.881Z,20.13
2018-04-13T20:57:04.457Z,20.10
2018-04-13T20:59:34.017Z,19.97
2018-04-13T21:02:04.066Z,19.37
2018-04-13T21:04:33.563Z,20.07
2018-04-13T21:07:05.292Z,19.63
2018-04-13T21:09:33.801Z,18.57
2018-04-13T21:12:16.624Z,19.23
2018-04-13T21:14:46.304Z,20.07
2018-04-13T21:17:17.435Z,19.63
2018-04-13T21:19:47.291Z,20.63
2018-04-13T21:22:16.085Z,20.17
2018-04-13T21:24:45.409Z,19.17
2018-04-13T21:27:15.893Z,21.23
2018-04-13T21:29:45.877Z,19.43
2018-04-13T21:32:17.601Z,21.00
2018-04-13T21:34:47.124Z,20.27
2018-04-13T21:37:19.895Z,19.00
2018-04-13T21:39:49.201Z,19.70
2018-04-13T21:42:22.616Z,20.67
2018-04-13T21:44:52.141Z,18.93
2018-04-13T21:47:23.419Z,20.03
2018-04-13T21:49:52.952Z,21.93
2018-04-13T21:52:34.347Z,20.60
2018-04-13T21:55:03.568Z,20.10
2018-04-13T21:57:32.132Z,21.33
2018-04-13T22:00:00.702Z,20.83
2018-04-13T22:02:29.751Z,20.17
2018-04-13T22:04:58.804Z,20.27
2018-04-13T22:07:32.064Z,19.50
2018-04-13T22:10:03.740Z,20.80
2018-04-13T22:12:37.701Z,18.57
2018-04-13T22:15:09.040Z,20.07
2018-04-13T22:17:38.272Z,19.03
2018-04-13T22:20:08.320Z,19.60
2018-04-13T22:22:38.488Z,20.50
2018-04-13T22:25:07.072Z,20.97
2018-04-13T22:27:48.381Z,21.23
2018-04-13T22:30:17.314Z,19.97
2018-04-13T22:32:47.491Z,20.63
2018-04-13T22:35:16.133Z,21.57
2018-04-13T22:37:46.046Z,22.17
2018-04-13T22:40:14.576Z,20.80
2018-04-13T22:42:47.452Z,19.23
2018-04-13T22:45:17.169Z,18.40
2018-04-13T22:47:50.894Z,18.63
2018-04-13T22:50:19.419Z,19.40
2018-04-13T22:53:01.870Z,19.90
2018-04-13T22:55:30.615Z,21.20
2018-04-13T22:57:59.112Z,19.50
2018-04-13T23:00:28.381Z,18.93
2018-04-13T23:02:58.352Z,20.93
2018-04-13T23:05:26.856Z,23.13
2018-04-13T23:08:03.152Z,20.47
2018-04-13T23:10:31.671Z,18.83
2018-04-13T23:13:02.902Z,19.73
2018-04-13T23:15:32.399Z,17.47
2018-04-13T23:18:13.715Z,19.10
2018-04-13T23:20:42.613Z,18.47
2018-04-13T23:23:11.909Z,18.37
2018-04-13T23:25:41.896Z,17.13
2018-04-13T23:28:12.656Z,18.27
2018-04-13T23:30:41.545Z,17.40
2018-04-13T23:33:22.712Z,16.77
2018-04-13T23:35:51.868Z,16.17
2018-04-13T23:38:21.119Z,15.53
2018-04-13T23:40:50.025Z,15.27
2018-04-13T23:43:19.838Z,14.57
2018-04-13T23:45:49.338Z,14.87
2018-04-13T23:48:20.271Z,15.97
2018-04-13T23:50:50.009Z,14.63
2018-04-13T23:53:31.279Z,13.80
2018-04-13T23:56:00.817Z,15.03
2018-04-13T23:58:29.347Z,14.20
